createdAt,value
2018-06-24T00:00:14.188Z,1014.55
2018-06-24T00:01:14.165Z,1014.48
2018-06-24T00:02:14.161Z,1014.46
2018-06-24T00:03:14.128Z,1014.42
2018-06-24T00:04:14.109Z,1014.43
2018-06-24T00:05:14.093Z,1014.40
2018-06-24T00:06:14.084Z,1014.38
2018-06-24T00:07:14.072Z,1014.39
2018-06-24T00:08:14.048Z,1014.37
2018-06-24T00:09:14.027Z,1014.38
2018-06-24T00:10:14.008Z,1014.37
2018-06-24T00:11:13.985Z,1014.40
2018-06-24T00:12:13.985Z,1014.43
2018-06-24T00:13:13.955Z,1014.39
2018-06-24T00:14:14.016Z,1014.37
2018-06-24T00:15:13.917Z,1014.40
2018-06-24T00:16:13.898Z,1014.35
2018-06-24T00:17:13.912Z,1014.34
2018-06-24T00:18:13.864Z,1014.33
2018-06-24T00:19:13.848Z,1014.32
2018-06-24T00:20:13.828Z,1014.29
2018-06-24T00:21:13.808Z,1014.35
2018-06-24T00:22:13.803Z,1014.29
2018-06-24T00:23:13.775Z,1014.31
2018-06-24T00:24:13.756Z,1014.30
2018-06-24T00:25:13.741Z,1014.30
2018-06-24T00:26:13.722Z,1014.29
2018-06-24T00:27:13.720Z,1014.27
2018-06-24T00:28:13.685Z,1014.28
2018-06-24T00:29:13.673Z,1014.29
2018-06-24T00:30:13.651Z,1014.26
2018-06-24T00:31:13.638Z,1014.24
2018-06-24T00:32:13.636Z,1014.29
2018-06-24T00:33:13.619Z,1014.27
2018-06-24T00:34:13.581Z,1014.23
2018-06-24T00:35:13.562Z,1014.24
2018-06-24T00:36:13.542Z,1014.28
2018-06-24T00:37:13.576Z,1014.24
2018-06-24T00:38:13.508Z,1014.24
2018-06-24T00:39:13.491Z,1014.21
2018-06-24T00:40:13.472Z,1014.24
2018-06-24T00:41:13.457Z,1014.22
2018-06-24T00:42:13.450Z,1014.21
2018-06-24T00:43:13.418Z,1014.21
2018-06-24T00:44:13.405Z,1014.21
2018-06-24T00:45:13.383Z,1014.23
2018-06-24T00:46:13.369Z,1014.21
2018-06-24T00:47:13.359Z,1014.22
2018-06-24T00:48:13.329Z,1014.19
2018-06-24T00:49:13.308Z,1014.15
2018-06-24T00:50:13.294Z,1014.15
2018-06-24T00:51:13.274Z,1014.13
2018-06-24T00:52:13.272Z,1014.16
2018-06-24T00:53:13.240Z,1014.11
2018-06-24T00:54:13.221Z,1014.08
2018-06-24T00:55:13.203Z,1014.10
2018-06-24T00:56:13.184Z,1014.10
2018-06-24T00:57:13.183Z,1014.09
2018-06-24T00:58:13.150Z,1014.10
2018-06-24T00:59:13.132Z,1014.10
2018-06-24T01:00:13.117Z,1014.09
2018-06-24T01:01:13.096Z,1014.07
2018-06-24T01:02:13.090Z,1014.05
2018-06-24T01:03:13.059Z,1014.07
2018-06-24T01:04:13.076Z,1014.08
2018-06-24T01:05:13.027Z,1014.05
2018-06-24T01:06:13.009Z,1014.09
2018-06-24T01:07:12.999Z,1014.05
2018-06-24T01:08:12.970Z,1014.03
2018-06-24T01:09:12.953Z,1014.06
2018-06-24T01:10:12.936Z,1014.03
2018-06-24T01:11:12.917Z,1014.04
2018-06-24T01:12:12.922Z,1014.04
2018-06-24T01:13:12.881Z,1014.04
2018-06-24T01:14:12.866Z,1014.06
2018-06-24T01:15:12.854Z,1014.03
2018-06-24T01:16:12.827Z,1014.07
2018-06-24T01:17:12.825Z,1014.04
2018-06-24T01:18:12.793Z,1014.06
2018-06-24T01:19:12.775Z,1014.02
2018-06-24T01:20:12.764Z,1014.02
2018-06-24T01:21:12.737Z,1013.98
2018-06-24T01:22:12.728Z,1013.99
2018-06-24T01:23:12.703Z,1013.93
2018-06-24T01:24:12.684Z,1013.95
2018-06-24T01:25:12.665Z,1013.92
2018-06-24T01:26:12.647Z,1013.90
2018-06-24T01:27:12.642Z,1013.86
2018-06-24T01:28:12.612Z,1013.86
2018-06-24T01:29:12.595Z,1013.89
2018-06-24T01:30:12.582Z,1013.88
2018-06-24T01:31:12.561Z,1013.88
2018-06-24T01:32:12.560Z,1013.87
2018-06-24T01:33:12.523Z,1013.82
2018-06-24T01:34:12.504Z,1013.87
2018-06-24T01:35:12.487Z,1013.85
2018-06-24T01:36:12.470Z,1013.88
2018-06-24T01:37:12.446Z,1013.86
2018-06-24T01:38:12.488Z,1013.87
2018-06-24T01:39:12.416Z,1013.82
2018-06-24T01:40:12.399Z,1013.82
2018-06-24T01:41:12.375Z,1013.81
2018-06-24T01:42:12.373Z,1013.79
2018-06-24T01:43:12.348Z,1013.82
2018-06-24T01:44:12.338Z,1013.78
2018-06-24T01:45:12.309Z,1013.76
2018-06-24T01:46:12.299Z,1013.78
2018-06-24T01:47:12.273Z,1013.74
2018-06-24T01:48:12.257Z,1013.76
2018-06-24T01:49:12.264Z,1013.72
2018-06-24T01:50:12.225Z,1013.71
2018-06-24T01:51:12.211Z,1013.71
2018-06-24T01:52:12.183Z,1013.69
2018-06-24T01:53:12.167Z,1013.67
2018-06-24T01:54:12.151Z,1013.66
2018-06-24T01:55:12.163Z,1013.66
2018-06-24T01:56:12.111Z,1013.62
2018-06-24T01:57:12.095Z,1013.60
2018-06-24T01:58:12.087Z,1013.59
2018-06-24T01:59:12.060Z,1013.59
2018-06-24T02:00:12.039Z,1013.56
2018-06-24T02:01:12.033Z,1013.60
2018-06-24T02:02:12.009Z,1013.55
2018-06-24T02:03:11.986Z,1013.58
2018-06-24T02:04:11.974Z,1013.54
2018-06-24T02:05:11.951Z,1013.53
2018-06-24T02:06:11.950Z,1013.49
2018-06-24T02:07:11.917Z,1013.47
2018-06-24T02:08:11.899Z,1013.42
2018-06-24T02:09:11.883Z,1013.43
2018-06-24T02:10:11.861Z,1013.42
2018-06-24T02:11:11.841Z,1013.41
2018-06-24T02:12:11.852Z,1013.39
2018-06-24T02:13:11.808Z,1013.42
2018-06-24T02:14:11.793Z,1013.41
2018-06-24T02:15:11.775Z,1013.40
2018-06-24T02:16:11.762Z,1013.40
2018-06-24T02:17:11.736Z,1013.34
2018-06-24T02:18:11.740Z,1013.31
2018-06-24T02:19:11.699Z,1013.34
2018-06-24T02:20:11.682Z,1013.31
2018-06-24T02:21:11.699Z,1013.33
2018-06-24T02:22:11.645Z,1013.32
2018-06-24T02:23:11.627Z,1013.27
2018-06-24T02:24:11.625Z,1013.26
2018-06-24T02:25:11.587Z,1013.25
2018-06-24T02:26:11.577Z,1013.22
2018-06-24T02:27:11.556Z,1013.23
2018-06-24T02:28:11.540Z,1013.17
2018-06-24T02:29:11.542Z,1013.14
2018-06-24T02:30:11.504Z,1013.15
2018-06-24T02:31:11.487Z,1013.15
2018-06-24T02:32:11.472Z,1013.10
2018-06-24T02:33:11.450Z,1013.11
2018-06-24T02:34:11.429Z,1013.09
2018-06-24T02:35:11.435Z,1013.12
2018-06-24T02:36:11.395Z,1013.14
2018-06-24T02:37:11.377Z,1013.11
2018-06-24T02:38:11.360Z,1013.09
2018-06-24T02:39:11.340Z,1013.07
2018-06-24T02:40:11.329Z,1013.06
2018-06-24T02:41:11.315Z,1013.05
2018-06-24T02:42:11.296Z,1013.09
2018-06-24T02:43:11.269Z,1013.14
2018-06-24T02:44:11.251Z,1013.13
2018-06-24T02:45:11.242Z,1013.12
2018-06-24T02:46:11.238Z,1013.11
2018-06-24T02:47:11.196Z,1013.09
2018-06-24T02:48:11.183Z,1013.07
2018-06-24T02:49:11.169Z,1013.06
2018-06-24T02:50:11.144Z,1013.04
2018-06-24T02:51:11.125Z,1013.06
2018-06-24T02:52:11.129Z,1013.07
2018-06-24T02:53:11.096Z,1013.09
2018-06-24T02:54:11.075Z,1013.11
2018-06-24T02:55:11.061Z,1013.12
2018-06-24T02:56:11.037Z,1013.19
2018-06-24T02:57:11.019Z,1013.16
2018-06-24T02:58:11.020Z,1013.15
2018-06-24T02:59:10.982Z,1013.18
2018-06-24T03:00:10.965Z,1013.13
2018-06-24T03:01:10.945Z,1013.16
2018-06-24T03:02:10.925Z,1013.19
2018-06-24T03:03:10.931Z,1013.19
2018-06-24T03:04:10.897Z,1013.23
2018-06-24T03:05:10.876Z,1013.27
2018-06-24T03:06:10.860Z,1013.26
2018-06-24T03:07:10.838Z,1013.28
2018-06-24T03:08:10.822Z,1013.28
2018-06-24T03:09:10.821Z,1013.32
2018-06-24T08:09:28.234Z,1014.03
2018-06-24T08:10:28.206Z,1014.02
2018-06-24T08:11:28.188Z,1013.99
2018-06-24T08:12:28.173Z,1014.01
2018-06-24T08:13:28.156Z,1013.97
2018-06-24T08:14:28.157Z,1013.98
2018-06-24T08:15:28.124Z,1013.94
2018-06-24T08:16:28.110Z,1014.00
2018-06-24T08:17:28.094Z,1013.97
2018-06-24T08:18:28.078Z,1013.99
2018-06-24T08:19:28.063Z,1013.97
2018-06-24T08:20:28.065Z,1014.01
2018-06-24T08:21:28.034Z,1014.05
2018-06-24T08:22:28.022Z,1014.03
2018-06-24T08:23:28.008Z,1014.03
2018-06-24T08:24:27.990Z,1013.99
2018-06-24T08:25:27.975Z,1013.98
2018-06-24T08:26:27.972Z,1013.97
2018-06-24T08:27:27.948Z,1014.00
2018-06-24T08:28:27.933Z,1013.99
2018-06-24T08:29:27.921Z,1013.96
2018-06-24T08:30:27.909Z,1014.00
2018-06-24T08:31:27.901Z,1014.00
2018-06-24T08:32:27.879Z,1013.99
2018-06-24T08:33:27.861Z,1014.04
2018-06-24T08:34:27.847Z,1014.05
2018-06-24T08:35:27.834Z,1014.01
2018-06-24T08:36:27.819Z,1014.03
2018-06-24T08:37:27.835Z,1014.02
2018-06-24T08:38:27.789Z,1013.98
2018-06-24T08:39:27.779Z,1013.99
2018-06-24T08:40:27.762Z,1014.00
2018-06-24T08:41:27.748Z,1013.97
2018-06-24T08:42:27.735Z,1014.00
2018-06-24T08:43:27.731Z,1014.01
2018-06-24T08:44:27.708Z,1013.93
2018-06-24T08:45:27.693Z,1013.95
2018-06-24T08:46:27.678Z,1013.91
2018-06-24T08:47:27.668Z,1013.90
2018-06-24T08:48:27.666Z,1013.89
2018-06-24T08:49:27.639Z,1013.91
2018-06-24T08:50:27.626Z,1013.96
2018-06-24T08:51:27.612Z,1013.93
2018-06-24T08:52:27.599Z,1013.92
2018-06-24T08:53:27.585Z,1013.96
2018-06-24T08:54:27.660Z,1013.93
2018-06-24T08:55:27.560Z,1013.96
2018-06-24T08:56:27.548Z,1013.95
2018-06-24T08:57:27.533Z,1013.95
2018-06-24T08:58:27.517Z,1013.94
2018-06-24T08:59:27.509Z,1013.91
2018-06-24T09:00:27.513Z,1013.89
2018-06-24T09:01:27.477Z,1013.91
2018-06-24T09:02:27.464Z,1013.88
2018-06-24T09:03:27.460Z,1013.88
2018-06-24T09:04:27.439Z,1013.92
2018-06-24T09:05:27.424Z,1013.88
2018-06-24T09:06:27.422Z,1013.97
2018-06-24T09:07:27.397Z,1014.00
2018-06-24T09:08:27.384Z,1013.99
2018-06-24T09:09:27.370Z,1013.99
2018-06-24T09:10:27.357Z,1014.03
2018-06-24T09:11:27.375Z,1014.05
2018-06-24T09:12:27.329Z,1014.05
2018-06-24T09:13:27.315Z,1013.98
2018-06-24T09:14:27.302Z,1013.99
2018-06-24T09:15:27.296Z,1014.00
2018-06-24T09:16:27.275Z,1013.98
2018-06-24T09:17:27.293Z,1014.03
2018-06-24T09:18:27.248Z,1014.01
2018-06-24T09:19:27.235Z,1014.05
2018-06-24T09:20:27.221Z,1014.06
2018-06-24T09:21:27.213Z,1014.06
2018-06-24T09:22:27.195Z,1014.03
2018-06-24T09:23:27.193Z,1014.06
2018-06-24T09:24:27.168Z,1014.03
2018-06-24T09:25:27.151Z,1014.07
2018-06-24T09:26:27.141Z,1014.07
2018-06-24T09:27:27.132Z,1014.07
2018-06-24T09:28:27.146Z,1014.07
2018-06-24T09:29:27.100Z,1014.09
2018-06-24T09:30:27.088Z,1014.05
2018-06-24T09:31:27.075Z,1014.12
2018-06-24T09:32:27.061Z,1014.06
2018-06-24T09:33:27.048Z,1014.13
2018-06-24T09:34:27.066Z,1014.11
2018-06-24T09:35:27.019Z,1014.15
2018-06-24T09:36:27.007Z,1014.12
2018-06-24T09:37:26.992Z,1014.13
2018-06-24T09:38:26.978Z,1014.19
2018-06-24T09:39:26.966Z,1014.16
2018-06-24T09:40:26.961Z,1014.15
2018-06-24T09:41:26.939Z,1014.16
2018-06-24T09:42:26.924Z,1014.15
2018-06-24T09:43:26.914Z,1014.18
2018-06-24T09:44:26.899Z,1014.11
2018-06-24T09:45:26.898Z,1014.10
2018-06-24T09:46:26.871Z,1014.13
2018-06-24T09:47:26.863Z,1014.10
2018-06-24T09:48:26.844Z,1014.13
2018-06-24T09:49:26.829Z,1014.04
2018-06-24T09:50:26.817Z,1014.07
2018-06-24T09:51:26.821Z,1014.11
2018-06-24T09:52:26.789Z,1014.14
2018-06-24T09:53:26.777Z,1014.07
2018-06-24T09:54:26.762Z,1014.07
2018-06-24T09:55:26.751Z,1014.09
2018-06-24T09:56:26.736Z,1014.06
2018-06-24T09:57:26.736Z,1014.07
2018-06-24T09:58:26.716Z,1014.11
2018-06-24T09:59:26.695Z,1014.09
2018-06-24T10:00:26.686Z,1014.10
2018-06-24T10:01:26.672Z,1014.08
2018-06-24T10:02:26.658Z,1014.07
2018-06-24T10:03:26.665Z,1014.08
2018-06-24T10:04:26.629Z,1014.09
2018-06-24T10:05:26.614Z,1014.09
2018-06-24T10:06:26.613Z,1014.10
2018-06-24T10:07:26.587Z,1014.08
2018-06-24T10:08:26.589Z,1014.06
2018-06-24T10:09:26.560Z,1014.10
2018-06-24T10:10:26.548Z,1014.05
2018-06-24T10:11:26.535Z,1014.08
2018-06-24T10:12:26.524Z,1014.09
2018-06-24T10:13:26.508Z,1014.09
2018-06-24T10:14:26.528Z,1014.08
2018-06-24T10:15:26.486Z,1014.07
2018-06-24T10:16:26.474Z,1014.08
2018-06-24T10:17:26.500Z,1014.01
2018-06-24T10:18:26.442Z,1014.03
2018-06-24T10:19:26.431Z,1014.05
2018-06-24T10:20:26.430Z,1014.05
2018-06-24T10:21:26.405Z,1014.10
2018-06-24T10:22:26.390Z,1014.06
2018-06-24T10:23:26.379Z,1014.04
2018-06-24T10:24:26.367Z,1014.05
2018-06-24T10:25:26.386Z,1014.08
2018-06-24T10:26:26.340Z,1014.01
2018-06-24T10:27:26.330Z,1014.05
2018-06-24T10:28:26.315Z,1014.11
2018-06-24T10:29:26.357Z,1014.14
2018-06-24T10:30:26.289Z,1014.17
2018-06-24T10:31:26.312Z,1014.10
2018-06-24T10:32:26.265Z,1014.13
2018-06-24T10:33:26.255Z,1014.14
2018-06-24T10:34:26.722Z,1014.12
2018-06-24T10:35:26.227Z,1014.10
2018-06-24T10:36:26.215Z,1014.07
2018-06-24T10:37:26.212Z,1014.02
2018-06-24T10:38:26.192Z,1014.01
2018-06-24T10:39:26.179Z,1014.03
2018-06-24T10:40:26.166Z,1014.04
2018-06-24T10:41:26.154Z,1014.04
2018-06-24T10:42:26.154Z,1014.08
2018-06-24T10:43:26.130Z,1014.07
2018-06-24T10:44:26.119Z,1014.11
2018-06-24T10:45:26.104Z,1014.02
2018-06-24T10:46:26.097Z,1014.09
2018-06-24T10:47:26.081Z,1014.07
2018-06-24T10:48:26.100Z,1014.10
2018-06-24T10:49:26.056Z,1014.12
2018-06-24T10:50:26.045Z,1014.14
2018-06-24T10:51:26.034Z,1014.10
2018-06-24T10:52:26.023Z,1014.14
2018-06-24T10:53:26.010Z,1014.22
2018-06-24T10:54:26.005Z,1014.26
2018-06-24T10:55:25.985Z,1014.14
2018-06-24T10:56:25.972Z,1014.12
2018-06-24T10:57:25.966Z,1014.16
2018-06-24T10:58:25.949Z,1013.96
2018-06-24T10:59:25.979Z,1013.98
2018-06-24T11:00:25.933Z,1013.94
2018-06-24T11:01:25.911Z,1013.96
2018-06-24T11:02:25.900Z,1013.90
2018-06-24T11:03:25.888Z,1013.96
2018-06-24T11:04:25.877Z,1013.95
2018-06-24T11:05:25.878Z,1013.94
2018-06-24T11:06:25.851Z,1013.98
2018-06-24T11:07:25.840Z,1013.94
2018-06-24T11:08:25.831Z,1013.96
2018-06-24T11:09:25.814Z,1014.11
2018-06-24T11:10:25.803Z,1014.07
2018-06-24T11:11:25.805Z,1014.11
2018-06-24T11:12:25.779Z,1014.15
2018-06-24T11:13:25.771Z,1013.89
2018-06-24T11:14:25.755Z,1013.88
2018-06-24T11:15:25.742Z,1013.78
2018-06-24T11:16:25.759Z,1013.85
2018-06-24T11:17:25.726Z,1013.91
2018-06-24T11:18:25.707Z,1013.95
2018-06-24T11:19:25.694Z,1014.02
2018-06-24T11:20:25.681Z,1014.05
2018-06-24T11:21:25.680Z,1014.06
2018-06-24T11:22:25.671Z,1014.11
2018-06-24T11:23:25.644Z,1014.04
2018-06-24T11:24:25.633Z,1014.06
2018-06-24T11:25:25.622Z,1014.07
2018-06-24T11:26:25.608Z,1014.03
2018-06-24T11:27:25.596Z,1014.04
2018-06-24T11:28:25.616Z,1014.05
2018-06-24T11:29:25.570Z,1014.09
2018-06-24T11:30:25.561Z,1013.99
2018-06-24T11:31:25.548Z,1013.99
2018-06-24T11:32:25.536Z,1013.91
2018-06-24T11:33:25.526Z,1013.90
2018-06-24T11:34:25.523Z,1013.85
2018-06-24T11:35:25.502Z,1013.87
2018-06-24T11:36:25.490Z,1013.89
2018-06-24T11:37:25.480Z,1013.88
2018-06-24T11:38:25.468Z,1013.85
2018-06-24T11:39:25.469Z,1013.86
2018-06-24T11:40:25.443Z,1013.87
2018-06-24T11:41:25.432Z,1014.05
2018-06-24T11:42:25.420Z,1014.10
2018-06-24T11:43:25.407Z,1014.10
2018-06-24T11:44:25.394Z,1014.06
2018-06-24T11:45:25.397Z,1013.87
2018-06-24T11:46:25.373Z,1013.91
2018-06-24T11:47:25.360Z,1013.82
2018-06-24T11:48:25.355Z,1013.77
2018-06-24T11:49:25.335Z,1013.69
2018-06-24T11:50:25.325Z,1013.69
2018-06-24T11:51:25.325Z,1013.65
2018-06-24T11:52:25.304Z,1013.65
2018-06-24T11:53:25.289Z,1013.65
2018-06-24T11:54:25.277Z,1013.70
2018-06-24T11:55:25.267Z,1013.72
2018-06-24T11:56:25.267Z,1013.76
2018-06-24T11:57:25.239Z,1013.77
2018-06-24T11:58:25.230Z,1013.76
2018-06-24T11:59:25.220Z,1013.85
2018-06-24T12:00:25.206Z,1013.94
2018-06-24T12:01:25.192Z,1013.94
2018-06-24T12:02:25.223Z,1013.91
2018-06-24T12:03:25.171Z,1013.79
2018-06-24T12:04:25.158Z,1013.76
2018-06-24T12:05:25.145Z,1013.69
2018-06-24T12:06:25.133Z,1013.73
2018-06-24T12:07:25.121Z,1013.72
2018-06-24T12:08:25.125Z,1013.71
2018-06-24T12:09:25.098Z,1013.73
2018-06-24T12:10:25.088Z,1013.66
2018-06-24T12:11:25.073Z,1013.70
2018-06-24T12:12:25.123Z,1013.70
2018-06-24T12:13:25.050Z,1013.68
2018-06-24T12:14:25.046Z,1013.69
2018-06-24T12:15:25.028Z,1013.71
2018-06-24T12:16:25.017Z,1013.72
2018-06-24T12:17:27.726Z,1013.75
2018-06-24T12:18:24.991Z,1013.77
2018-06-24T12:19:24.992Z,1013.82
2018-06-24T12:20:24.966Z,1013.75
2018-06-24T12:21:24.953Z,1013.70
2018-06-24T12:22:24.942Z,1013.75
2018-06-24T12:23:24.929Z,1013.73
2018-06-24T12:24:24.917Z,1013.64
2018-06-24T12:25:24.919Z,1013.68
2018-06-24T12:26:24.893Z,1013.57
2018-06-24T12:27:24.881Z,1013.68
2018-06-24T12:28:24.871Z,1013.64
2018-06-24T12:29:24.862Z,1013.60
2018-06-24T12:30:24.846Z,1013.45
2018-06-24T12:31:24.845Z,1013.41
2018-06-24T12:32:24.824Z,1013.50
2018-06-24T12:33:24.813Z,1013.45
2018-06-24T12:34:24.799Z,1013.46
2018-06-24T12:35:24.788Z,1013.44
2018-06-24T12:36:24.792Z,1013.61
2018-06-24T12:37:24.818Z,1013.60
2018-06-24T12:38:24.753Z,1013.49
2018-06-24T12:39:24.742Z,1013.52
2018-06-24T12:40:24.736Z,1013.52
2018-06-24T12:41:24.717Z,1013.54
2018-06-24T12:42:24.722Z,1013.55
2018-06-24T12:43:24.705Z,1013.50
2018-06-24T12:44:24.686Z,1013.51
2018-06-24T12:45:24.672Z,1013.52
2018-06-24T12:46:24.661Z,1013.49
2018-06-24T12:47:24.652Z,1013.47
2018-06-24T12:48:24.650Z,1013.50
2018-06-24T12:49:24.647Z,1013.47
2018-06-24T12:50:24.625Z,1013.51
2018-06-24T12:51:24.605Z,1013.52
2018-06-24T12:52:24.594Z,1013.55
2018-06-24T12:53:24.597Z,1013.56
2018-06-24T12:54:24.583Z,1013.57
2018-06-24T12:55:24.559Z,1013.56
2018-06-24T12:56:24.549Z,1013.45
2018-06-24T12:57:24.537Z,1013.47
2018-06-24T12:58:24.647Z,1013.48
2018-06-24T12:59:24.876Z,1013.48
2018-06-24T13:00:25.135Z,1013.46
2018-06-24T13:01:24.489Z,1013.46
2018-06-24T13:02:24.480Z,1013.50
2018-06-24T13:03:24.469Z,1013.48
2018-06-24T13:04:24.462Z,1013.45
2018-06-24T13:05:24.456Z,1013.51
2018-06-24T13:06:24.436Z,1013.48
2018-06-24T13:07:24.425Z,1013.44
2018-06-24T13:08:24.413Z,1013.51
2018-06-24T13:09:24.402Z,1013.48
2018-06-24T13:10:24.388Z,1013.46
2018-06-24T13:11:24.393Z,1013.43
2018-06-24T13:12:24.928Z,1013.41
2018-06-24T13:13:24.354Z,1013.41
2018-06-24T13:14:24.345Z,1013.44
2018-06-24T13:15:24.333Z,1013.48
2018-06-24T13:16:24.321Z,1013.46
2018-06-24T13:17:24.328Z,1013.45
2018-06-24T13:18:24.297Z,1013.42
2018-06-24T13:19:24.289Z,1013.42
2018-06-24T13:20:24.276Z,1013.35
2018-06-24T13:21:24.266Z,1013.36
2018-06-24T13:22:24.252Z,1013.33
2018-06-24T13:23:24.253Z,1013.36
2018-06-24T13:24:24.234Z,1013.35
2018-06-24T13:25:24.221Z,1013.34
2018-06-24T13:26:24.213Z,1013.29
2018-06-24T13:27:24.195Z,1013.34
2018-06-24T13:28:24.202Z,1013.37
2018-06-24T13:29:24.175Z,1013.39
2018-06-24T13:30:24.161Z,1013.34
2018-06-24T13:31:24.152Z,1013.41
2018-06-24T13:32:24.138Z,1013.39
2018-06-24T13:33:24.126Z,1013.45
2018-06-24T13:34:24.130Z,1013.42
2018-06-24T13:35:24.102Z,1013.43
2018-06-24T13:36:24.093Z,1013.41
2018-06-24T13:37:24.078Z,1013.38
2018-06-24T13:38:24.065Z,1013.40
2018-06-24T13:39:24.079Z,1013.40
2018-06-24T13:40:24.059Z,1013.43
2018-06-24T13:41:24.032Z,1013.42
2018-06-24T13:42:24.094Z,1013.38
2018-06-24T13:43:24.008Z,1013.35
2018-06-24T13:44:23.997Z,1013.39
2018-06-24T13:45:23.997Z,1013.35
2018-06-24T13:46:23.975Z,1013.42
2018-06-24T13:47:23.963Z,1013.39
2018-06-24T13:48:23.951Z,1013.38
2018-06-24T13:49:23.942Z,1013.41
2018-06-24T13:50:23.944Z,1013.39
2018-06-24T13:51:23.960Z,1013.37
2018-06-24T13:52:23.903Z,1013.43
2018-06-24T13:53:23.892Z,1013.45
2018-06-24T13:54:23.884Z,1013.47
2018-06-24T13:55:23.870Z,1013.45
2018-06-24T13:56:23.868Z,1013.45
2018-06-24T13:57:23.846Z,1013.43
2018-06-24T13:58:23.834Z,1013.47
2018-06-24T13:59:23.824Z,1013.40
2018-06-24T14:00:23.811Z,1013.51
2018-06-24T14:01:23.812Z,1013.47
2018-06-24T14:02:23.786Z,1013.43
2018-06-24T14:03:23.774Z,1013.46
2018-06-24T14:04:23.762Z,1013.43
2018-06-24T14:05:23.751Z,1013.41
2018-06-24T14:06:23.739Z,1013.42
2018-06-24T14:07:23.740Z,1013.42
2018-06-24T14:08:23.715Z,1013.41
2018-06-24T14:09:23.701Z,1013.40
2018-06-24T14:10:23.689Z,1013.37
2018-06-24T14:11:23.678Z,1013.29
2018-06-24T14:12:23.667Z,1013.40
2018-06-24T14:13:23.665Z,1013.41
2018-06-24T14:14:23.643Z,1013.41
2018-06-24T14:15:23.631Z,1013.36
2018-06-24T14:16:23.620Z,1013.39
2018-06-24T14:17:23.609Z,1013.40
2018-06-24T14:18:23.615Z,1013.33
2018-06-24T14:19:23.588Z,1013.31
2018-06-24T14:20:23.575Z,1013.30
2018-06-24T14:21:23.562Z,1013.34
2018-06-24T14:22:23.556Z,1013.33
2018-06-24T14:23:23.591Z,1013.34
2018-06-24T14:24:23.538Z,1013.34
2018-06-24T14:25:23.514Z,1013.36
2018-06-24T14:26:23.510Z,1013.39
2018-06-24T14:27:23.496Z,1013.39
2018-06-24T14:28:23.482Z,1013.40
2018-06-24T14:29:23.497Z,1013.36
2018-06-24T14:30:23.459Z,1013.35
2018-06-24T14:31:23.448Z,1013.39
2018-06-24T14:32:23.440Z,1013.37
2018-06-24T14:33:23.426Z,1013.41
2018-06-24T14:34:23.414Z,1013.47
2018-06-24T14:35:23.417Z,1013.45
2018-06-24T14:36:23.396Z,1013.35
2018-06-24T14:37:23.382Z,1013.34
2018-06-24T14:38:23.370Z,1013.32
2018-06-24T14:39:23.360Z,1013.40
2018-06-24T14:40:23.384Z,1013.41
2018-06-24T14:41:23.338Z,1013.43
2018-06-24T14:42:23.341Z,1013.40
2018-06-24T14:43:23.317Z,1013.36
2018-06-24T14:44:23.307Z,1013.36
2018-06-24T14:45:23.296Z,1013.36
2018-06-24T14:46:23.300Z,1013.40
2018-06-24T14:47:23.281Z,1013.31
2018-06-24T14:48:23.268Z,1013.33
2018-06-24T14:49:23.257Z,1013.45
2018-06-24T14:50:23.246Z,1013.41
2018-06-24T14:51:23.271Z,1013.38
2018-06-24T14:52:23.228Z,1013.45
2018-06-24T14:53:23.217Z,1013.41
2018-06-24T14:54:23.207Z,1013.41
2018-06-24T14:55:23.196Z,1013.45
2018-06-24T14:56:23.186Z,1013.35
2018-06-24T14:57:23.203Z,1013.38
2018-06-24T14:58:23.166Z,1013.35
2018-06-24T14:59:23.155Z,1013.34
2018-06-24T15:00:23.145Z,1013.27
2018-06-24T15:01:23.149Z,1013.23
2018-06-24T15:02:23.165Z,1013.26
2018-06-24T15:03:23.118Z,1013.22
2018-06-24T15:04:23.110Z,1013.23
2018-06-24T15:05:23.092Z,1013.23
2018-06-24T15:06:23.079Z,1013.25
2018-06-24T15:07:23.071Z,1013.22
2018-06-24T15:08:23.077Z,1013.25
2018-06-24T15:09:23.056Z,1013.22
2018-06-24T15:10:23.039Z,1013.24
2018-06-24T15:11:23.071Z,1013.25
2018-06-24T15:12:23.016Z,1013.26
2018-06-24T15:13:23.022Z,1013.23
2018-06-24T15:14:22.992Z,1013.22
2018-06-24T15:15:22.982Z,1013.24
2018-06-24T15:16:22.973Z,1013.23
2018-06-24T15:17:22.958Z,1013.24
2018-06-24T15:18:22.947Z,1013.24
2018-06-24T15:19:22.950Z,1013.19
2018-06-24T15:20:22.925Z,1013.21
2018-06-24T15:21:22.913Z,1013.20
2018-06-24T15:22:22.901Z,1013.25
2018-06-24T15:23:22.890Z,1013.18
2018-06-24T15:24:22.894Z,1013.19
2018-06-24T15:25:22.868Z,1013.16
2018-06-24T15:26:22.855Z,1013.19
2018-06-24T15:27:22.842Z,1013.16
2018-06-24T15:28:22.830Z,1013.18
2018-06-24T15:29:22.815Z,1013.22
2018-06-24T15:30:22.822Z,1013.19
2018-06-24T15:31:22.792Z,1013.16
2018-06-24T15:32:22.781Z,1013.19
2018-06-24T15:33:22.767Z,1013.14
2018-06-24T15:34:22.754Z,1013.09
2018-06-24T15:35:22.745Z,1013.12
2018-06-24T15:36:22.742Z,1013.14
2018-06-24T15:37:22.717Z,1013.14
2018-06-24T15:38:22.704Z,1013.12
2018-06-24T15:39:22.690Z,1013.18
2018-06-24T15:40:22.679Z,1013.18
2018-06-24T15:41:22.683Z,1013.11
2018-06-24T15:42:22.652Z,1013.16
2018-06-24T15:43:22.640Z,1013.14
2018-06-24T15:44:22.626Z,1013.12
2018-06-24T15:45:22.613Z,1013.07
2018-06-24T15:46:22.605Z,1013.13
2018-06-24T15:47:22.598Z,1013.13
2018-06-24T15:48:22.574Z,1013.14
2018-06-24T15:49:22.560Z,1013.14
2018-06-24T15:50:22.546Z,1013.14
2018-06-24T15:51:22.551Z,1013.14
2018-06-24T15:52:22.542Z,1013.13
2018-06-24T15:53:22.522Z,1013.11
2018-06-24T15:54:22.495Z,1013.12
2018-06-24T15:55:22.489Z,1013.13
2018-06-24T15:56:22.466Z,1013.08
2018-06-24T15:57:22.453Z,1013.08
2018-06-24T15:58:22.497Z,1013.05
2018-06-24T15:59:22.426Z,1013.11
2018-06-24T16:00:22.414Z,1013.11
2018-06-24T16:01:22.400Z,1013.03
2018-06-24T16:02:22.386Z,1013.06
2018-06-24T16:03:22.392Z,1013.08
2018-06-24T16:04:22.360Z,1013.04
2018-06-24T16:05:22.348Z,1013.07
2018-06-24T16:06:22.333Z,1013.02
2018-06-24T16:07:22.319Z,1013.03
2018-06-24T16:08:22.305Z,1013.08
2018-06-24T16:09:22.304Z,1013.08
2018-06-24T16:10:22.278Z,1013.04
2018-06-24T16:11:22.264Z,1013.07
2018-06-24T16:12:22.250Z,1013.08
2018-06-24T16:13:22.280Z,1013.09
2018-06-24T16:14:22.237Z,1013.11
2018-06-24T16:15:22.209Z,1013.04
2018-06-24T16:16:22.199Z,1013.07
2018-06-24T16:17:22.180Z,1013.09
2018-06-24T16:18:22.168Z,1013.08
2018-06-24T16:19:22.171Z,1013.06
2018-06-24T16:20:22.177Z,1013.09
2018-06-24T16:21:22.128Z,1013.10
2018-06-24T16:22:22.112Z,1013.10
2018-06-24T16:23:22.100Z,1013.05
2018-06-24T16:24:22.085Z,1013.04
2018-06-24T16:25:22.082Z,1013.05
2018-06-24T16:26:22.058Z,1013.03
2018-06-24T16:27:22.044Z,1013.04
2018-06-24T16:28:22.030Z,1013.00
2018-06-24T16:29:22.015Z,1013.00
2018-06-24T16:30:22.017Z,1013.03
2018-06-24T16:31:21.987Z,1013.01
2018-06-24T16:32:21.976Z,1013.00
2018-06-24T16:33:21.992Z,1012.99
2018-06-24T16:34:21.945Z,1013.03
2018-06-24T16:35:21.930Z,1013.03
2018-06-24T16:36:21.926Z,1013.03
2018-06-24T16:37:21.904Z,1013.04
2018-06-24T16:38:21.934Z,1013.02
2018-06-24T16:39:21.875Z,1013.04
2018-06-24T16:40:21.859Z,1013.02
2018-06-24T16:41:21.872Z,1013.02
2018-06-24T16:42:21.886Z,1013.03
2018-06-24T16:43:21.853Z,1013.02
2018-06-24T16:44:21.804Z,1013.02
2018-06-24T16:45:21.788Z,1012.99
2018-06-24T16:46:21.778Z,1013.00
2018-06-24T16:47:21.771Z,1013.01
2018-06-24T16:48:21.745Z,1013.03
2018-06-24T16:49:21.729Z,1013.02
2018-06-24T16:50:21.715Z,1012.98
2018-06-24T16:51:21.702Z,1013.02
2018-06-24T16:52:21.704Z,1013.02
2018-06-24T16:53:21.681Z,1013.04
2018-06-24T16:54:21.658Z,1013.06
2018-06-24T16:55:21.643Z,1013.03
2018-06-24T16:56:21.633Z,1013.04
2018-06-24T16:57:21.613Z,1013.05
2018-06-24T16:58:21.621Z,1013.03
2018-06-24T16:59:21.584Z,1013.00
2018-06-24T17:00:21.572Z,1013.02
2018-06-24T17:01:21.555Z,1013.04
2018-06-24T17:02:21.541Z,1013.06
2018-06-24T17:03:21.531Z,1013.06
2018-06-24T17:04:21.524Z,1013.05